createdAt,value
2019-04-30T00:01:58.967Z,82.31
2019-04-30T00:04:37.522Z,81.51
2019-04-30T00:07:00.385Z,80.34
2019-04-30T00:09:29.086Z,79.82
2019-04-30T00:12:00.937Z,79.36
2019-04-30T00:14:32.012Z,79.38
2019-04-30T00:16:56.546Z,79.17
2019-04-30T00:19:25.922Z,78.77
2019-04-30T00:21:57.529Z,78.18
2019-04-30T00:24:25.841Z,78.05
2019-04-30T00:26:55.177Z,77.12
2019-04-30T00:29:26.660Z,76.76
2019-04-30T00:31:57.643Z,76.56
2019-04-30T00:34:25.000Z,76.42
2019-04-30T00:36:53.027Z,77.13
2019-04-30T00:39:21.055Z,77.12
2019-04-30T00:41:48.927Z,77.01
2019-04-30T00:44:20.015Z,77.14
2019-04-30T00:46:48.013Z,77.12
2019-04-30T00:49:22.682Z,77.53
2019-04-30T00:51:45.643Z,78.23
2019-04-30T00:54:15.240Z,79.06
2019-04-30T00:56:43.223Z,79.44
2019-04-30T00:59:12.473Z,79.83
2019-04-30T01:02:20.057Z,79.52
2019-04-30T01:04:47.016Z,79.71
2019-04-30T01:07:15.523Z,79.75
2019-04-30T01:09:46.496Z,79.55
2019-04-30T01:12:19.108Z,78.57
2019-04-30T01:14:45.298Z,78.61
2019-04-30T01:17:15.732Z,78.88
2019-04-30T01:19:45.875Z,77.90
2019-04-30T01:22:13.698Z,77.71
2019-04-30T01:24:41.871Z,77.91
2019-04-30T01:27:10.718Z,78.39
2019-04-30T01:29:44.003Z,78.22
2019-04-30T01:32:10.414Z,78.60
2019-04-30T01:34:39.522Z,79.22
2019-04-30T01:37:08.754Z,79.22
2019-04-30T01:39:36.675Z,78.30
2019-04-30T01:42:07.871Z,78.65
2019-04-30T01:44:34.213Z,79.26
2019-04-30T01:47:01.997Z,79.98
2019-04-30T01:49:41.530Z,79.90
2019-04-30T01:52:01.342Z,80.01
2019-04-30T01:54:31.094Z,80.06
2019-04-30T01:57:21.087Z,79.59
2019-04-30T02:00:20.413Z,79.36
2019-04-30T02:02:49.590Z,79.58
2019-04-30T02:05:18.892Z,79.33
2019-04-30T02:07:48.575Z,79.29
2019-04-30T02:10:18.966Z,78.32
2019-04-30T02:12:46.786Z,77.99
2019-04-30T02:15:14.619Z,78.05
2019-04-30T02:17:43.613Z,78.43
2019-04-30T02:20:13.222Z,78.48
2019-04-30T02:22:41.026Z,77.96
2019-04-30T02:25:09.683Z,78.16
2019-04-30T02:27:39.016Z,77.88
2019-04-30T02:30:10.761Z,77.46
2019-04-30T02:32:39.508Z,76.75
2019-04-30T02:35:19.390Z,77.01
2019-04-30T02:38:05.708Z,77.45
2019-04-30T02:40:35.834Z,77.50
2019-04-30T02:43:04.235Z,76.99
2019-04-30T02:45:35.833Z,76.84
2019-04-30T02:48:04.411Z,76.63
2019-04-30T02:50:39.186Z,76.93
2019-04-30T02:53:52.801Z,76.91
2019-04-30T02:56:26.328Z,76.85
2019-04-30T02:58:54.375Z,76.44
2019-04-30T03:01:22.250Z,75.95
2019-04-30T03:03:50.800Z,75.92
2019-04-30T03:06:23.176Z,75.96
2019-04-30T03:08:51.208Z,75.64
2019-04-30T03:11:20.786Z,75.27
2019-04-30T03:13:49.478Z,75.39
2019-04-30T03:16:21.473Z,75.50
2019-04-30T03:19:05.532Z,74.68
2019-04-30T03:21:50.448Z,74.71
2019-04-30T03:24:20.213Z,73.63
2019-04-30T03:26:49.925Z,74.31
2019-04-30T03:29:20.444Z,74.10
2019-04-30T03:31:52.212Z,73.53
2019-04-30T03:34:25.132Z,73.58
2019-04-30T03:36:50.458Z,73.83
2019-04-30T03:39:19.895Z,73.76
2019-04-30T03:41:50.138Z,73.60
2019-04-30T03:44:25.462Z,73.18
2019-04-30T03:46:49.824Z,73.38
2019-04-30T03:49:20.333Z,73.87
2019-04-30T03:51:49.705Z,74.50
2019-04-30T03:54:19.325Z,74.28
2019-04-30T03:56:49.913Z,74.59
2019-04-30T03:59:16.850Z,74.79
2019-04-30T04:01:53.923Z,74.92
2019-04-30T04:04:39.534Z,74.58
2019-04-30T04:07:41.572Z,74.98
2019-04-30T04:10:31.895Z,74.74
2019-04-30T04:12:59.821Z,74.86
2019-04-30T04:15:29.941Z,75.26
2019-04-30T04:18:00.219Z,75.38
2019-04-30T04:20:29.897Z,74.94
2019-04-30T04:22:59.685Z,75.14
2019-04-30T04:25:29.965Z,75.23
2019-04-30T04:28:00.364Z,75.22
2019-04-30T04:30:29.729Z,75.32
2019-04-30T04:32:59.683Z,74.89
2019-04-30T04:35:29.848Z,74.42
2019-04-30T04:37:57.181Z,73.91
2019-04-30T04:40:25.072Z,73.95
2019-04-30T04:42:52.821Z,74.07
2019-04-30T04:45:20.661Z,74.22
2019-04-30T04:47:50.404Z,73.99
2019-04-30T04:50:20.037Z,73.53
2019-04-30T04:52:49.564Z,73.17
2019-04-30T04:55:22.285Z,73.13
2019-04-30T04:57:50.277Z,72.79
2019-04-30T05:00:19.390Z,73.34
2019-04-30T05:03:24.966Z,73.20
2019-04-30T05:05:52.847Z,73.13
2019-04-30T05:08:20.647Z,72.43
2019-04-30T05:10:49.507Z,72.21
2019-04-30T05:13:19.084Z,71.69
2019-04-30T05:15:51.241Z,71.75
2019-04-30T05:18:19.053Z,71.02
2019-04-30T05:20:48.981Z,70.92
2019-04-30T05:23:21.541Z,71.29
2019-04-30T05:25:48.701Z,71.08
2019-04-30T05:28:18.756Z,70.67
2019-04-30T05:30:46.740Z,70.51
2019-04-30T05:33:14.565Z,69.80
2019-04-30T05:35:42.970Z,66.89
2019-04-30T05:38:10.780Z,64.53
2019-04-30T05:40:39.827Z,62.59
2019-04-30T05:43:09.057Z,60.02
2019-04-30T05:45:39.134Z,58.71
2019-04-30T05:48:08.747Z,58.04
2019-04-30T05:50:38.982Z,56.87
2019-04-30T05:53:06.747Z,56.22
2019-04-30T05:55:34.603Z,54.56
2019-04-30T05:58:02.390Z,52.28
2019-04-30T06:00:31.810Z,51.27
2019-04-30T06:02:59.634Z,49.66
2019-04-30T06:05:28.566Z,49.61
2019-04-30T06:07:59.202Z,48.08
2019-04-30T06:10:41.797Z,48.95
2019-04-30T06:13:16.325Z,47.09
2019-04-30T06:15:49.067Z,42.28
2019-04-30T06:18:18.575Z,41.17
2019-04-30T06:20:48.559Z,41.95
2019-04-30T06:23:16.927Z,40.55
2019-04-30T06:25:56.282Z,38.17
2019-04-30T06:28:15.017Z,35.52
2019-04-30T06:30:43.314Z,33.70
2019-04-30T06:33:11.740Z,33.50
2019-04-30T06:35:40.161Z,33.18
2019-04-30T06:38:08.595Z,32.34
2019-04-30T06:40:36.640Z,33.03
2019-04-30T06:43:04.984Z,33.26
2019-04-30T06:45:34.692Z,31.69
2019-04-30T06:48:04.002Z,30.41
2019-04-30T06:50:32.036Z,27.80
2019-04-30T06:53:01.612Z,27.30
2019-04-30T06:55:30.945Z,28.80
2019-04-30T06:58:11.463Z,28.70
2019-04-30T07:00:35.830Z,28.70
2019-04-30T07:03:04.956Z,27.31
2019-04-30T07:05:32.820Z,25.25
2019-04-30T07:08:19.047Z,24.65
2019-04-30T07:10:55.698Z,23.78
2019-04-30T07:13:24.099Z,23.05
2019-04-30T07:15:51.913Z,22.43
2019-04-30T07:18:19.787Z,23.28
2019-04-30T07:20:48.649Z,21.68
2019-04-30T07:23:18.698Z,23.45
2019-04-30T07:25:46.423Z,24.83
2019-04-30T07:28:14.348Z,23.70
2019-04-30T07:30:42.311Z,23.33
2019-04-30T07:33:10.102Z,24.89
2019-04-30T07:35:39.745Z,22.49
2019-04-30T07:38:09.317Z,20.39
2019-04-30T07:40:39.028Z,19.28
2019-04-30T07:43:08.893Z,20.88
2019-04-30T07:45:36.738Z,19.65
2019-04-30T07:48:04.655Z,19.47
2019-04-30T07:50:33.168Z,20.76
2019-04-30T07:53:05.711Z,20.17
2019-04-30T07:55:31.071Z,19.15
2019-04-30T07:57:59.249Z,17.32
2019-04-30T08:00:30.959Z,18.65
2019-04-30T08:03:08.417Z,19.39
2019-04-30T08:05:40.709Z,17.42
2019-04-30T08:08:20.137Z,17.40
2019-04-30T08:10:39.364Z,16.44
2019-04-30T08:13:13.904Z,16.59
2019-04-30T08:15:42.183Z,16.10
2019-04-30T08:18:08.731Z,15.69
2019-04-30T08:20:36.670Z,16.58
2019-04-30T08:23:15.589Z,17.20
2019-04-30T08:25:34.270Z,17.20
2019-04-30T08:28:02.105Z,16.26
2019-04-30T08:30:30.184Z,15.48
2019-04-30T08:32:59.580Z,13.99
2019-04-30T08:35:29.535Z,13.96
2019-04-30T08:37:59.069Z,14.25
2019-04-30T08:40:27.146Z,14.14
2019-04-30T08:42:55.026Z,14.03
2019-04-30T08:45:22.800Z,13.05
2019-04-30T08:47:53.374Z,13.55
2019-04-30T08:50:22.308Z,14.93
2019-04-30T08:52:50.706Z,13.01
2019-04-30T08:55:19.744Z,12.96
2019-04-30T08:57:50.065Z,12.76
2019-04-30T09:00:19.545Z,13.23
2019-04-30T09:02:49.214Z,11.92
2019-04-30T09:05:23.274Z,12.59
2019-04-30T09:07:51.126Z,13.33
2019-04-30T09:10:19.330Z,12.83
2019-04-30T09:12:49.622Z,11.80
2019-04-30T09:15:18.731Z,12.41
2019-04-30T09:17:58.895Z,11.82
2019-04-30T09:20:16.429Z,10.85
2019-04-30T09:22:44.347Z,10.55
2019-04-30T09:25:12.193Z,9.80
2019-04-30T09:27:40.134Z,9.43
2019-04-30T09:30:10.397Z,10.76
2019-04-30T09:32:38.977Z,10.45
2019-04-30T09:35:07.301Z,11.64
2019-04-30T09:37:35.416Z,11.04
2019-04-30T09:40:15.295Z,10.77
2019-04-30T09:42:33.625Z,11.36
2019-04-30T09:45:01.468Z,12.84
2019-04-30T09:47:29.633Z,12.38
2019-04-30T09:49:59.593Z,10.62
2019-04-30T09:52:30.237Z,10.47
2019-04-30T09:54:57.203Z,9.13
2019-04-30T09:57:26.224Z,8.57
2019-04-30T09:59:54.007Z,7.74
2019-04-30T10:02:21.947Z,8.00
2019-04-30T10:04:50.283Z,8.38
2019-04-30T10:07:19.535Z,8.46
2019-04-30T10:09:50.698Z,8.74
2019-04-30T10:12:19.368Z,8.24
2019-04-30T10:14:47.109Z,7.64
2019-04-30T10:17:34.858Z,8.12
2019-04-30T10:20:03.885Z,9.43
2019-04-30T10:22:31.731Z,8.41
2019-04-30T10:24:59.768Z,9.66
2019-04-30T10:27:29.372Z,9.11
2019-04-30T10:29:59.259Z,7.96
2019-04-30T10:32:27.571Z,8.15
2019-04-30T10:34:55.458Z,8.93
2019-04-30T10:37:23.302Z,9.41
2019-04-30T10:39:51.503Z,10.25
2019-04-30T10:42:19.415Z,9.57
2019-04-30T10:44:47.274Z,8.39
2019-04-30T10:47:15.402Z,7.97
2019-04-30T10:49:43.186Z,8.21
2019-04-30T10:52:11.044Z,6.78
2019-04-30T10:54:39.032Z,6.21
2019-04-30T10:57:08.568Z,5.80
2019-04-30T10:59:36.692Z,6.09
2019-04-30T11:02:04.920Z,5.22
2019-04-30T11:04:32.795Z,5.08
2019-04-30T11:07:00.908Z,7.17
2019-04-30T11:09:31.014Z,6.94
2019-04-30T11:11:59.475Z,6.66
2019-04-30T11:14:27.322Z,8.08
2019-04-30T11:16:55.309Z,8.16
2019-04-30T11:19:23.478Z,7.21
2019-04-30T11:21:51.599Z,5.73
2019-04-30T11:24:19.960Z,5.65
2019-04-30T11:26:50.024Z,5.47
2019-04-30T11:29:17.751Z,5.40
2019-04-30T11:32:10.185Z,6.31
2019-04-30T11:34:38.083Z,5.67
2019-04-30T11:37:05.969Z,5.81
2019-04-30T11:39:33.783Z,5.37
2019-04-30T11:42:01.833Z,5.97
2019-04-30T11:44:31.575Z,7.14
2019-04-30T11:47:38.467Z,6.79
2019-04-30T11:50:11.112Z,5.74
2019-04-30T11:52:38.942Z,5.95
2019-04-30T11:55:09.617Z,6.10
2019-04-30T11:57:39.710Z,6.91
2019-04-30T12:00:13.350Z,6.50
2019-04-30T12:02:41.546Z,7.27
2019-04-30T12:05:13.223Z,6.49
2019-04-30T12:07:52.603Z,5.46
2019-04-30T12:10:46.013Z,4.69
2019-04-30T12:13:23.701Z,5.17
2019-04-30T12:15:52.181Z,5.98
2019-04-30T12:18:20.068Z,6.45
2019-04-30T12:20:47.924Z,6.90
2019-04-30T12:23:15.776Z,7.25
2019-04-30T12:25:43.575Z,5.67
2019-04-30T12:28:11.381Z,5.27
2019-04-30T12:30:39.221Z,5.80
2019-04-30T12:33:08.994Z,5.20
2019-04-30T12:35:36.789Z,4.82
2019-04-30T12:38:04.927Z,6.36
2019-04-30T12:40:32.809Z,7.31
2019-04-30T12:43:00.738Z,7.23
2019-04-30T12:45:29.444Z,6.32
2019-04-30T12:48:01.213Z,5.40
2019-04-30T12:50:51.154Z,5.11
2019-04-30T12:53:27.757Z,5.27
2019-04-30T12:56:21.247Z,5.64
2019-04-30T12:58:47.648Z,6.03
2019-04-30T13:01:17.442Z,6.82
2019-04-30T13:03:55.928Z,6.97
2019-04-30T13:06:15.455Z,6.34
2019-04-30T13:08:43.945Z,5.72
2019-04-30T13:11:13.294Z,6.29
2019-04-30T13:13:42.379Z,7.57
2019-04-30T13:16:10.618Z,9.64
2019-04-30T13:18:39.363Z,9.35
2019-04-30T13:21:08.541Z,8.34
2019-04-30T13:23:36.529Z,7.95
2019-04-30T13:26:04.372Z,7.79
2019-04-30T13:28:41.290Z,7.50
2019-04-30T13:31:09.331Z,6.66
2019-04-30T13:33:42.998Z,6.88
2019-04-30T13:36:10.942Z,7.38
2019-04-30T13:38:55.992Z,8.25
2019-04-30T13:41:46.931Z,8.15
2019-04-30T13:44:19.506Z,8.48
2019-04-30T13:46:47.470Z,8.69
2019-04-30T13:49:15.599Z,9.01
2019-04-30T13:51:43.451Z,9.33
2019-04-30T13:54:11.251Z,8.48
2019-04-30T13:56:39.749Z,8.61
2019-04-30T13:59:07.758Z,9.26
2019-04-30T14:01:35.619Z,8.96
2019-04-30T14:04:13.581Z,9.75
2019-04-30T14:06:51.887Z,10.69
2019-04-30T14:09:24.784Z,13.96
2019-04-30T14:11:52.660Z,15.23
2019-04-30T14:14:20.609Z,16.74
2019-04-30T14:16:48.531Z,17.72
2019-04-30T14:19:16.360Z,17.92
2019-04-30T14:21:44.169Z,18.48
2019-04-30T14:24:11.957Z,18.71
2019-04-30T14:26:39.780Z,19.26
2019-04-30T14:29:07.554Z,20.25
2019-04-30T14:31:35.410Z,21.06
2019-04-30T14:34:03.390Z,21.01
2019-04-30T14:36:31.232Z,22.00
2019-04-30T14:39:13.069Z,21.62
2019-04-30T14:41:31.741Z,21.68
2019-04-30T14:44:04.991Z,22.03
2019-04-30T14:46:45.788Z,21.75
2019-04-30T14:49:42.663Z,22.61
2019-04-30T14:52:11.840Z,22.14
2019-04-30T14:54:59.496Z,21.91
2019-04-30T14:57:55.716Z,22.47
2019-04-30T15:00:45.888Z,22.04
2019-04-30T15:03:14.687Z,20.84
2019-04-30T15:05:48.887Z,18.50
2019-04-30T15:08:12.221Z,18.54
2019-04-30T15:10:40.126Z,19.19
2019-04-30T15:13:09.761Z,20.08
2019-04-30T15:15:39.166Z,20.79
2019-04-30T15:18:09.086Z,21.43
2019-04-30T15:20:36.900Z,21.28
2019-04-30T15:23:19.197Z,22.10
2019-04-30T15:25:45.616Z,22.03
2019-04-30T15:28:13.434Z,21.58
2019-04-30T15:30:42.090Z,21.88
2019-04-30T15:33:22.941Z,21.36
2019-04-30T15:35:50.751Z,20.77
2019-04-30T15:38:20.411Z,21.30
2019-04-30T15:40:48.223Z,22.02
2019-04-30T15:43:16.155Z,23.66
2019-04-30T15:45:44.013Z,24.70
2019-04-30T15:48:11.784Z,25.13
2019-04-30T15:50:39.636Z,25.33
2019-04-30T15:53:09.358Z,25.04
2019-04-30T15:55:37.156Z,24.81
2019-04-30T15:58:15.137Z,25.43
2019-04-30T16:00:42.987Z,25.58
2019-04-30T16:03:17.083Z,26.22
2019-04-30T16:05:47.452Z,26.68
2019-04-30T16:08:23.829Z,26.50
2019-04-30T16:11:10.580Z,26.40
2019-04-30T16:13:58.500Z,26.23
2019-04-30T16:16:30.114Z,26.23
2019-04-30T16:18:58.787Z,25.23
2019-04-30T16:21:26.742Z,24.55
2019-04-30T16:23:54.526Z,24.53
2019-04-30T16:26:22.306Z,25.01
2019-04-30T16:28:50.400Z,24.40
2019-04-30T16:31:20.304Z,23.51
2019-04-30T16:33:48.838Z,22.99
2019-04-30T16:36:19.212Z,22.44
2019-04-30T16:38:48.597Z,21.96
2019-04-30T16:41:28.500Z,22.08
2019-04-30T16:43:46.183Z,22.10
2019-04-30T16:46:14.009Z,23.44
2019-04-30T16:48:42.142Z,25.01
2019-04-30T16:51:09.922Z,25.65
2019-04-30T16:53:38.359Z,25.93
2019-04-30T16:56:08.567Z,25.34
2019-04-30T16:58:54.857Z,25.59
2019-04-30T17:01:22.789Z,25.71
2019-04-30T17:03:54.096Z,24.89
2019-04-30T17:06:24.150Z,24.27
2019-04-30T17:09:09.174Z,24.41
2019-04-30T17:11:55.242Z,24.81
2019-04-30T17:14:23.097Z,24.88
2019-04-30T17:16:50.932Z,24.76
2019-04-30T17:19:19.132Z,24.90
2019-04-30T17:21:47.469Z,25.64
2019-04-30T17:24:15.309Z,26.05
2019-04-30T17:26:43.170Z,25.67
2019-04-30T17:29:11.063Z,25.68
2019-04-30T17:31:38.875Z,26.43
2019-04-30T17:34:06.812Z,26.42
2019-04-30T17:36:34.691Z,25.67
2019-04-30T17:39:04.074Z,25.93
2019-04-30T17:41:31.921Z,26.31
2019-04-30T17:43:59.714Z,26.07
2019-04-30T17:46:28.491Z,26.17
2019-04-30T17:48:56.454Z,27.17
2019-04-30T17:51:24.314Z,26.56
2019-04-30T17:54:10.374Z,27.34
2019-04-30T17:56:38.312Z,27.29
2019-04-30T17:59:06.310Z,28.96
2019-04-30T18:01:35.072Z,29.07
2019-04-30T18:04:03.111Z,29.00
2019-04-30T18:06:31.082Z,29.41
2019-04-30T18:08:59.076Z,30.11
2019-04-30T18:11:27.056Z,30.17
2019-04-30T18:13:55.008Z,30.37
2019-04-30T18:16:22.944Z,30.09
2019-04-30T18:18:56.604Z,30.83
2019-04-30T18:21:31.725Z,30.98
2019-04-30T18:24:19.433Z,31.07
2019-04-30T18:26:52.713Z,32.05
2019-04-30T18:29:20.547Z,32.36
2019-04-30T18:31:48.360Z,32.94
2019-04-30T18:34:16.228Z,33.11
2019-04-30T18:36:44.062Z,33.23
2019-04-30T18:39:12.332Z,34.04
2019-04-30T18:41:40.202Z,34.51
2019-04-30T18:44:09.504Z,35.52
2019-04-30T18:46:39.030Z,35.55
2019-04-30T18:49:07.034Z,35.94
2019-04-30T18:51:39.510Z,36.34
2019-04-30T18:54:05.011Z,36.86
2019-04-30T18:56:32.898Z,37.27
2019-04-30T18:59:01.085Z,38.15
2019-04-30T19:01:28.974Z,39.14
2019-04-30T19:03:58.460Z,39.67
2019-04-30T19:06:26.607Z,40.39
2019-04-30T19:09:17.194Z,40.85
2019-04-30T19:11:51.373Z,41.49
2019-04-30T19:14:39.531Z,42.34
2019-04-30T19:17:27.175Z,43.19
2019-04-30T19:20:04.391Z,44.15
2019-04-30T19:22:32.253Z,44.44
2019-04-30T19:25:04.049Z,44.78
2019-04-30T19:27:29.840Z,45.46
2019-04-30T19:29:59.441Z,45.92
2019-04-30T19:32:30.269Z,46.17
2019-04-30T19:34:58.995Z,46.49
2019-04-30T19:37:26.927Z,47.09
2019-04-30T19:39:54.856Z,47.61
2019-04-30T19:42:24.066Z,47.80
2019-04-30T19:44:59.763Z,48.08
2019-04-30T19:47:21.774Z,48.83
2019-04-30T19:49:49.670Z,49.11
2019-04-30T19:52:19.217Z,49.29
2019-04-30T19:54:48.749Z,50.06
2019-04-30T19:57:16.798Z,50.20
2019-04-30T19:59:44.742Z,50.64
2019-04-30T20:02:12.651Z,51.03
2019-04-30T20:04:42.286Z,51.30
2019-04-30T20:07:10.335Z,51.78
2019-04-30T20:09:38.213Z,52.17
2019-04-30T20:12:06.030Z,52.09
2019-04-30T20:14:33.918Z,52.50
2019-04-30T20:17:01.772Z,52.76
2019-04-30T20:19:30.789Z,53.35
2019-04-30T20:21:59.517Z,54.00
2019-04-30T20:24:29.358Z,54.26
2019-04-30T20:27:06.791Z,54.31
2019-04-30T20:29:28.904Z,54.15
2019-04-30T20:31:58.806Z,54.19
2019-04-30T20:34:26.800Z,54.66
2019-04-30T20:36:58.337Z,54.94
2019-04-30T20:39:35.190Z,54.94
2019-04-30T20:42:03.139Z,54.96
2019-04-30T20:44:31.051Z,54.91
2019-04-30T20:46:59.161Z,54.90
2019-04-30T20:49:29.004Z,55.21
2019-04-30T20:51:58.849Z,55.43
2019-04-30T20:54:26.697Z,55.53
2019-04-30T20:56:54.538Z,55.86
2019-04-30T20:59:22.388Z,56.13
2019-04-30T21:01:50.224Z,56.73
2019-04-30T21:04:20.718Z,56.93
2019-04-30T21:06:49.617Z,56.80
2019-04-30T21:09:17.636Z,56.85
2019-04-30T21:11:45.444Z,56.96
2019-04-30T21:14:13.253Z,57.51
2019-04-30T21:16:41.059Z,57.38
2019-04-30T21:19:09.042Z,57.68
2019-04-30T21:21:38.700Z,57.69
2019-04-30T21:24:06.780Z,58.00
2019-04-30T21:26:34.703Z,57.36
2019-04-30T21:29:11.153Z,57.44
2019-04-30T21:31:50.367Z,58.03
2019-04-30T21:34:29.324Z,58.08
2019-04-30T21:36:59.545Z,58.25
2019-04-30T21:39:27.559Z,58.67
2019-04-30T21:41:55.361Z,58.58
2019-04-30T21:44:23.145Z,58.73
2019-04-30T21:46:50.951Z,59.05
2019-04-30T21:49:18.809Z,59.37
2019-04-30T21:51:46.642Z,59.22
2019-04-30T21:54:14.491Z,59.30
2019-04-30T21:56:42.375Z,59.58
2019-04-30T21:59:10.348Z,59.86
2019-04-30T22:01:40.599Z,60.00
2019-04-30T22:04:08.556Z,60.10
2019-04-30T22:06:36.341Z,60.40
2019-04-30T22:09:06.429Z,60.49
2019-04-30T22:11:34.273Z,60.74
2019-04-30T22:14:02.117Z,61.00
2019-04-30T22:16:29.930Z,61.24
2019-04-30T22:18:57.860Z,61.25
2019-04-30T22:21:25.676Z,61.63
2019-04-30T22:23:53.487Z,62.01
2019-04-30T22:26:21.319Z,62.06
2019-04-30T22:28:49.566Z,62.35
2019-04-30T22:31:19.562Z,62.32
2019-04-30T22:33:49.015Z,62.31
2019-04-30T22:36:24.998Z,62.42
2019-04-30T22:39:29.642Z,62.47
2019-04-30T22:42:29.829Z,62.39
2019-04-30T22:44:58.571Z,62.79
2019-04-30T22:47:26.398Z,63.16
2019-04-30T22:49:54.272Z,63.65
2019-04-30T22:52:22.139Z,63.91
2019-04-30T22:54:49.978Z,64.00
2019-04-30T22:57:17.752Z,64.30
2019-04-30T22:59:49.996Z,64.42
2019-04-30T23:02:26.478Z,64.64
2019-04-30T23:04:54.274Z,64.84
2019-04-30T23:07:22.142Z,65.20
2019-04-30T23:09:50.008Z,65.46
2019-04-30T23:12:17.865Z,65.86
2019-04-30T23:14:45.674Z,66.38
2019-04-30T23:17:13.533Z,66.76
2019-04-30T23:19:41.318Z,67.12
2019-04-30T23:22:09.128Z,67.68
2019-04-30T23:24:36.930Z,67.72
2019-04-30T23:27:04.772Z,67.91
2019-04-30T23:29:32.545Z,68.43
2019-04-30T23:32:00.377Z,68.66
2019-04-30T23:34:28.167Z,68.97
2019-04-30T23:36:55.948Z,69.37
2019-04-30T23:39:23.876Z,69.24
2019-04-30T23:41:51.805Z,69.27
2019-04-30T23:44:19.643Z,69.61
2019-04-30T23:46:47.601Z,69.87
2019-04-30T23:49:15.499Z,70.16
2019-04-30T23:51:43.327Z,70.39
2019-04-30T23:54:11.159Z,70.82
2019-04-30T23:56:39.026Z,71.34
2019-04-30T23:59:06.944Z,71.71
